Terminal Aerodrome Forecast
Issued by NWS

Home | Current Version | Previous Version | Text Only | Print | Product List | Glossary On
Versions: 1 2 3 4 5 6 7 8 9 10 11 12 13 14 15 16 17 18 19 20 21 22 23 24 25 26 27 28 29 30 31 32 33 34 35
563
FTUS44 KBMX 231128
TAFTOI
TAF
KTOI 231128Z 2312/2412 30015G25KT P6SM -DZ OVC015
     FM231800 30015G25KT P6SM BKN025
      TEMPO 2318/2322 SCT025
     FM240000 30012KT P6SM OVC015
     FM240900 31004KT P6SM OVC015=

USA.gov is the U.S. government's official web portal to all federal, state and local government web resources and services.